sensor_id;sensor_type;location;lat;lon;timestamp;pressure;altitude;pressure_sealevel;temperature;humidity
31239;BME280;17871;31.584;74.450;2023-01-29T00:02:11;98521.75;;;12.54;79.16
31239;BME280;17871;31.584;74.450;2023-01-29T00:04:40;98524.31;;;12.57;78.29
31239;BME280;17871;31.584;74.450;2023-01-29T00:07:10;98526.06;;;12.61;78.35
31239;BME280;17871;31.584;74.450;2023-01-29T00:09:39;98526.91;;;12.67;78.09
31239;BME280;17871;31.584;74.450;2023-01-29T00:12:09;98532.91;;;12.68;77.59
31239;BME280;17871;31.584;74.450;2023-01-29T00:14:38;98526.03;;;12.68;77.94
31239;BME280;17871;31.584;74.450;2023-01-29T00:17:08;98527.78;;;12.71;77.51
31239;BME280;17871;31.584;74.450;2023-01-29T00:19:38;98542.28;;;12.64;78.56
31239;BME280;17871;31.584;74.450;2023-01-29T00:22:07;98539.69;;;12.58;77.86
31239;BME280;17871;31.584;74.450;2023-01-29T00:24:36;98538.84;;;12.62;77.81
31239;BME280;17871;31.584;74.450;2023-01-29T00:27:06;98543.13;;;12.65;78.37
31239;BME280;17871;31.584;74.450;2023-01-29T00:29:35;98535.44;;;12.66;77.36
31239;BME280;17871;31.584;74.450;2023-01-29T00:32:05;98536.31;;;12.64;77.92
31239;BME280;17871;31.584;74.450;2023-01-29T00:34:36;98538.84;;;12.50;77.57
31239;BME280;17871;31.584;74.450;2023-01-29T00:37:05;98538.00;;;12.56;77.34
31239;BME280;17871;31.584;74.450;2023-01-29T00:39:36;98547.41;;;12.51;78.92
31239;BME280;17871;31.584;74.450;2023-01-29T00:42:15;98550.78;;;12.49;78.42
31239;BME280;17871;31.584;74.450;2023-01-29T00:45:03;98552.50;;;12.49;77.82
31239;BME280;17871;31.584;74.450;2023-01-29T00:47:32;98549.97;;;12.54;78.34
31239;BME280;17871;31.584;74.450;2023-01-29T00:50:08;98553.38;;;12.59;78.47
31239;BME280;17871;31.584;74.450;2023-01-29T00:52:38;98555.03;;;12.41;77.88
31239;BME280;17871;31.584;74.450;2023-01-29T00:55:10;98557.66;;;12.61;78.64
31239;BME280;17871;31.584;74.450;2023-01-29T00:57:39;98546.47;;;12.24;78.57
31239;BME280;17871;31.584;74.450;2023-01-29T01:00:16;98555.00;;;12.26;79.31
31239;BME280;17871;31.584;74.450;2023-01-29T01:02:55;98557.56;;;12.26;78.95
31239;BME280;17871;31.584;74.450;2023-01-29T01:05:44;98558.47;;;12.31;79.61
31239;BME280;17871;31.584;74.450;2023-01-29T01:08:25;98553.28;;;12.22;80.26
31239;BME280;17871;31.584;74.450;2023-01-29T01:11:25;98554.19;;;12.30;79.74
31239;BME280;17871;31.584;74.450;2023-01-29T01:14:07;98555.00;;;12.26;79.77
31239;BME280;17871;31.584;74.450;2023-01-29T01:16:48;98554.16;;;12.23;80.51
31239;BME280;17871;31.584;74.450;2023-01-29T01:19:28;98557.59;;;12.25;80.61
31239;BME280;17871;31.584;74.450;2023-01-29T01:22:08;98557.56;;;12.17;79.26
31239;BME280;17871;31.584;74.450;2023-01-29T01:24:52;98564.34;;;12.02;80.21
31239;BME280;17871;31.584;74.450;2023-01-29T01:27:29;98559.19;;;11.97;80.76
31239;BME280;17871;31.584;74.450;2023-01-29T01:30:00;98566.91;;;12.09;79.71
31239;BME280;17871;31.584;74.450;2023-01-29T01:32:31;98565.25;;;12.29;80.02
31239;BME280;17871;31.584;74.450;2023-01-29T01:35:05;98566.88;;;12.06;79.89
31239;BME280;17871;31.584;74.450;2023-01-29T01:37:36;98568.66;;;12.28;80.26
31239;BME280;17871;31.584;74.450;2023-01-29T01:40:14;98572.06;;;12.18;79.54
31239;BME280;17871;31.584;74.450;2023-01-29T01:42:49;98564.34;;;12.05;80.08
31239;BME280;17871;31.584;74.450;2023-01-29T01:45:26;98563.47;;;12.06;80.38
31239;BME280;17871;31.584;74.450;2023-01-29T01:48:16;98570.38;;;12.20;80.12
31239;BME280;17871;31.584;74.450;2023-01-29T01:50:59;98575.44;;;12.05;81.03
31239;BME280;17871;31.584;74.450;2023-01-29T01:53:35;98574.53;;;11.94;80.35
31239;BME280;17871;31.584;74.450;2023-01-29T01:56:15;98572.00;;;12.02;79.96
31239;BME280;17871;31.584;74.450;2023-01-29T01:59:11;98572.88;;;12.05;80.06
31239;BME280;17871;31.584;74.450;2023-01-29T02:01:44;98574.53;;;11.94;80.72
31239;BME280;17871;31.584;74.450;2023-01-29T02:04:20;98572.00;;;12.00;80.60
31239;BME280;17871;31.584;74.450;2023-01-29T02:07:11;98586.50;;;12.00;81.39
31239;BME280;17871;31.584;74.450;2023-01-29T02:10:11;98584.91;;;12.21;80.96
31239;BME280;17871;31.584;74.450;2023-01-29T02:12:43;98585.69;;;12.08;81.03
31239;BME280;17871;31.584;74.450;2023-01-29T02:15:15;98590.81;;;12.08;80.08
31239;BME280;17871;31.584;74.450;2023-01-29T02:17:45;98595.91;;;12.07;80.70
31239;BME280;17871;31.584;74.450;2023-01-29T02:20:29;98589.16;;;12.24;80.06
31239;BME280;17871;31.584;74.450;2023-01-29T02:31:23;98626.00;;;12.56;79.83
31239;BME280;17871;31.584;74.450;2023-01-29T02:44:47;98650.84;;;12.80;78.09
31239;BME280;17871;31.584;74.450;2023-01-29T02:47:38;98660.22;;;12.69;78.44
31239;BME280;17871;31.584;74.450;2023-01-29T02:50:18;98662.81;;;12.85;78.04
31239;BME280;17871;31.584;74.450;2023-01-29T02:55:31;98667.13;;;13.08;77.98
31239;BME280;17871;31.584;74.450;2023-01-29T02:58:10;98673.13;;;13.08;77.52
31239;BME280;17871;31.584;74.450;2023-01-29T03:00:45;98685.97;;;13.17;76.93
31239;BME280;17871;31.584;74.450;2023-01-29T03:03:16;98687.66;;;13.08;77.45
31239;BME280;17871;31.584;74.450;2023-01-29T03:06:11;98690.31;;;13.36;76.81
31239;BME280;17871;31.584;74.450;2023-01-29T03:08:59;98692.00;;;13.37;76.67
31239;BME280;17871;31.584;74.450;2023-01-29T03:11:46;98702.28;;;13.49;76.63
31239;BME280;17871;31.584;74.450;2023-01-29T03:14:34;98706.59;;;13.57;76.44
31239;BME280;17871;31.584;74.450;2023-01-29T03:17:26;98721.97;;;13.58;76.40
31239;BME280;17871;31.584;74.450;2023-01-29T03:20:00;98726.25;;;13.51;76.38
31239;BME280;17871;31.584;74.450;2023-01-29T03:22:32;98736.50;;;13.55;75.61
31239;BME280;17871;31.584;74.450;2023-01-29T03:25:02;98748.50;;;13.60;76.52
31239;BME280;17871;31.584;74.450;2023-01-29T03:27:55;98750.22;;;13.72;76.04
31239;BME280;17871;31.584;74.450;2023-01-29T03:30:57;98758.75;;;13.80;76.71
31239;BME280;17871;31.584;74.450;2023-01-29T03:34:05;98779.34;;;13.92;76.36
31239;BME280;17871;31.584;74.450;2023-01-29T03:36:50;98782.75;;;13.88;75.56
31239;BME280;17871;31.584;74.450;2023-01-29T03:39:25;98793.03;;;14.03;74.99
31239;BME280;17871;31.584;74.450;2023-01-29T03:42:20;98793.88;;;14.19;74.95
31239;BME280;17871;31.584;74.450;2023-01-29T03:56:24;98829.84;;;14.57;74.06
31239;BME280;17871;31.584;74.450;2023-01-29T03:59:04;98841.00;;;14.48;74.38
31239;BME280;17871;31.584;74.450;2023-01-29T04:02:01;98845.28;;;14.47;74.76
31239;BME280;17871;31.584;74.450;2023-01-29T04:04:34;98851.25;;;14.71;74.52
31239;BME280;17871;31.584;74.450;2023-01-29T04:07:18;98852.91;;;14.93;73.73
31239;BME280;17871;31.584;74.450;2023-01-29T04:10:15;98858.91;;;15.01;73.73
31239;BME280;17871;31.584;74.450;2023-01-29T04:12:54;98856.34;;;14.98;73.69
31239;BME280;17871;31.584;74.450;2023-01-29T04:15:27;98864.84;;;15.21;73.22
31239;BME280;17871;31.584;74.450;2023-01-29T04:17:59;98861.34;;;15.37;72.36
31239;BME280;17871;31.584;74.450;2023-01-29T04:20:40;98855.22;;;15.61;72.48
31239;BME280;17871;31.584;74.450;2023-01-29T04:23:22;98858.59;;;15.77;71.42
31239;BME280;17871;31.584;74.450;2023-01-29T04:26:32;98850.66;;;16.01;70.54
31239;BME280;17871;31.584;74.450;2023-01-29T04:29:38;98858.41;;;16.02;70.71
31239;BME280;17871;31.584;74.450;2023-01-29T04:38:06;98881.44;;;16.24;70.59
31239;BME280;17871;31.584;74.450;2023-01-29T04:43:25;98890.72;;;16.46;69.29
31239;BME280;17871;31.584;74.450;2023-01-29T04:46:14;98883.72;;;16.60;69.10
31239;BME280;17871;31.584;74.450;2023-01-29T04:51:56;98867.41;;;16.63;67.82
31239;BME280;17871;31.584;74.450;2023-01-29T05:00:09;98863.84;;;16.73;66.53
31239;BME280;17871;31.584;74.450;2023-01-29T05:02:44;98868.19;;;16.68;66.68
31239;BME280;17871;31.584;74.450;2023-01-29T05:05:16;98870.00;;;16.58;67.14
31239;BME280;17871;31.584;74.450;2023-01-29T05:07:48;98866.59;;;16.56;67.48
31239;BME280;17871;31.584;74.450;2023-01-29T05:10:19;98859.41;;;16.84;66.77
31239;BME280;17871;31.584;74.450;2023-01-29T05:12:59;98855.84;;;16.97;66.86
31239;BME280;17871;31.584;74.450;2023-01-29T05:15:38;98852.38;;;16.98;66.66
31239;BME280;17871;31.584;74.450;2023-01-29T05:18:08;98845.63;;;16.86;65.71
31239;BME280;17871;31.584;74.450;2023-01-29T05:20:39;98838.50;;;17.06;66.43
31239;BME280;17871;31.584;74.450;2023-01-29T05:23:19;98840.19;;;17.10;66.04
31239;BME280;17871;31.584;74.450;2023-01-29T05:25:49;98844.28;;;17.27;65.68
31239;BME280;17871;31.584;74.450;2023-01-29T05:28:20;98847.69;;;17.30;65.40
31239;BME280;17871;31.584;74.450;2023-01-29T05:30:53;98841.59;;;17.36;65.82
31239;BME280;17871;31.584;74.450;2023-01-29T05:33:30;98842.91;;;17.69;64.93
31239;BME280;17871;31.584;74.450;2023-01-29T05:35:59;98845.44;;;17.72;64.69
31239;BME280;17871;31.584;74.450;2023-01-29T05:38:30;98830.91;;;17.65;65.02
31239;BME280;17871;31.584;74.450;2023-01-29T05:41:04;98833.47;;;17.68;65.40
31239;BME280;17871;31.584;74.450;2023-01-29T05:43:37;98839.44;;;17.71;65.25
31239;BME280;17871;31.584;74.450;2023-01-29T05:46:06;98837.53;;;17.84;65.65
31239;BME280;17871;31.584;74.450;2023-01-29T05:48:36;98830.72;;;17.78;65.47
31239;BME280;17871;31.584;74.450;2023-01-29T05:51:05;98818.56;;;17.85;65.73
31239;BME280;17871;31.584;74.450;2023-01-29T05:57:05;98801.66;;;18.18;65.26
31239;BME280;17871;31.584;74.450;2023-01-29T05:59:34;98801.59;;;18.19;65.10
31239;BME280;17871;31.584;74.450;2023-01-29T06:02:04;98812.63;;;18.30;64.40
31239;BME280;17871;31.584;74.450;2023-01-29T06:04:33;98812.75;;;18.23;64.62
31239;BME280;17871;31.584;74.450;2023-01-29T06:07:03;98805.59;;;18.38;63.78
31239;BME280;17871;31.584;74.450;2023-01-29T06:09:33;98804.53;;;18.48;63.39
31239;BME280;17871;31.584;74.450;2023-01-29T06:12:02;98795.06;;;18.50;63.35
31239;BME280;17871;31.584;74.450;2023-01-29T06:14:34;98800.06;;;18.59;62.68
31239;BME280;17871;31.584;74.450;2023-01-29T06:17:06;98811.91;;;18.73;63.18
31239;BME280;17871;31.584;74.450;2023-01-29T06:19:40;98805.84;;;18.74;63.76
31239;BME280;17871;31.584;74.450;2023-01-29T06:22:10;98809.25;;;18.74;63.17
31239;BME280;17871;31.584;74.450;2023-01-29T06:24:39;98804.03;;;18.77;63.41
31239;BME280;17871;31.584;74.450;2023-01-29T06:27:09;98804.06;;;18.76;63.87
31239;BME280;17871;31.584;74.450;2023-01-29T06:29:38;98796.84;;;18.93;64.83
31239;BME280;17871;31.584;74.450;2023-01-29T06:32:08;98793.38;;;18.92;64.22
31239;BME280;17871;31.584;74.450;2023-01-29T06:34:37;98799.56;;;18.87;63.37
31239;BME280;17871;31.584;74.450;2023-01-29T06:37:07;98800.94;;;19.03;62.84
31239;BME280;17871;31.584;74.450;2023-01-29T06:39:36;98807.66;;;19.13;62.76
31239;BME280;17871;31.584;74.450;2023-01-29T06:42:05;98803.88;;;19.28;62.64
31239;BME280;17871;31.584;74.450;2023-01-29T06:44:34;98787.31;;;19.33;64.02
31239;BME280;17871;31.584;74.450;2023-01-29T06:47:04;98784.13;;;19.22;63.87
31239;BME280;17871;31.584;74.450;2023-01-29T06:49:33;98780.84;;;19.14;64.58
31239;BME280;17871;31.584;74.450;2023-01-29T06:52:02;98778.47;;;19.03;64.02
31239;BME280;17871;31.584;74.450;2023-01-29T06:54:32;98775.00;;;19.04;63.84
31239;BME280;17871;31.584;74.450;2023-01-29T06:57:02;98775.03;;;19.03;64.66
31239;BME280;17871;31.584;74.450;2023-01-29T06:59:31;98770.31;;;19.23;64.54
31239;BME280;17871;31.584;74.450;2023-01-29T07:02:02;98761.31;;;19.39;63.85
31239;BME280;17871;31.584;74.450;2023-01-29T07:04:32;98761.31;;;19.39;63.89
31239;BME280;17871;31.584;74.450;2023-01-29T07:07:01;98759.41;;;19.47;63.51
31239;BME280;17871;31.584;74.450;2023-01-29T07:09:30;98756.28;;;19.32;63.89
31239;BME280;17871;31.584;74.450;2023-01-29T07:12:00;98752.84;;;19.31;63.43
31239;BME280;17871;31.584;74.450;2023-01-29T07:14:29;98752.47;;;19.49;63.68
31239;BME280;17871;31.584;74.450;2023-01-29T07:16:58;98749.19;;;19.41;65.24
31239;BME280;17871;31.584;74.450;2023-01-29T07:19:29;98733.56;;;19.44;65.75
31239;BME280;17871;31.584;74.450;2023-01-29T07:21:58;98735.16;;;19.50;66.19
31239;BME280;17871;31.584;74.450;2023-01-29T07:24:30;98726.66;;;19.45;66.18
31239;BME280;17871;31.584;74.450;2023-01-29T07:26:59;98723.66;;;19.61;66.30
31239;BME280;17871;31.584;74.450;2023-01-29T07:29:29;98717.59;;;19.62;66.15
31239;BME280;17871;31.584;74.450;2023-01-29T07:31:59;98707.53;;;19.84;65.41
31239;BME280;17871;31.584;74.450;2023-01-29T07:34:28;98716.81;;;19.59;65.33
31239;BME280;17871;31.584;74.450;2023-01-29T07:36:58;98708.34;;;19.51;65.71
31239;BME280;17871;31.584;74.450;2023-01-29T07:39:28;98698.59;;;19.60;65.82
31239;BME280;17871;31.584;74.450;2023-01-29T07:41:57;98702.22;;;19.53;66.01
31239;BME280;17871;31.584;74.450;2023-01-29T07:44:27;98692.22;;;19.75;65.96
31239;BME280;17871;31.584;74.450;2023-01-29T07:46:57;98687.69;;;19.48;66.17
31239;BME280;17871;31.584;74.450;2023-01-29T07:49:26;98691.50;;;19.68;66.39
31239;BME280;17871;31.584;74.450;2023-01-29T07:51:55;98685.06;;;19.83;66.23
31239;BME280;17871;31.584;74.450;2023-01-29T07:54:25;98684.47;;;19.74;67.10
31239;BME280;17871;31.584;74.450;2023-01-29T07:56:54;98678.22;;;19.81;67.52
31239;BME280;17871;31.584;74.450;2023-01-29T07:59:23;98683.50;;;19.78;66.57
31239;BME280;17871;31.584;74.450;2023-01-29T08:01:53;98666.63;;;19.60;67.82
31239;BME280;17871;31.584;74.450;2023-01-29T08:04:23;98665.59;;;19.68;67.78
31239;BME280;17871;31.584;74.450;2023-01-29T08:06:52;98660.56;;;19.61;67.38
31239;BME280;17871;31.584;74.450;2023-01-29T08:09:22;98649.94;;;19.72;67.70
31239;BME280;17871;31.584;74.450;2023-01-29T08:11:53;98646.50;;;19.71;67.83
31239;BME280;17871;31.584;74.450;2023-01-29T08:14:24;98642.88;;;19.77;66.94
31239;BME280;17871;31.584;74.450;2023-01-29T08:16:59;98646.31;;;19.79;67.36
31239;BME280;17871;31.584;74.450;2023-01-29T08:19:32;98631.97;;;19.64;66.90
31239;BME280;17871;31.584;74.450;2023-01-29T08:22:01;98634.22;;;19.78;67.09
31239;BME280;17871;31.584;74.450;2023-01-29T08:24:30;98633.81;;;19.93;66.28
31239;BME280;17871;31.584;74.450;2023-01-29T08:27:20;98625.81;;;20.02;66.54
31239;BME280;17871;31.584;74.450;2023-01-29T08:29:49;98624.66;;;19.80;67.19
31239;BME280;17871;31.584;74.450;2023-01-29T08:32:19;98620.94;;;19.90;67.33
31239;BME280;17871;31.584;74.450;2023-01-29T08:34:48;98612.75;;;20.05;67.05
31239;BME280;17871;31.584;74.450;2023-01-29T08:37:18;98615.19;;;20.09;67.73
31239;BME280;17871;31.584;74.450;2023-01-29T08:39:47;98609.31;;;20.03;67.29
31239;BME280;17871;31.584;74.450;2023-01-29T08:42:16;98607.56;;;20.05;67.54
31239;BME280;17871;31.584;74.450;2023-01-29T08:44:46;98603.81;;;20.15;67.49
31239;BME280;17871;31.584;74.450;2023-01-29T08:47:15;98601.06;;;20.21;67.72
31239;BME280;17871;31.584;74.450;2023-01-29T08:49:44;98602.03;;;20.17;67.33
31239;BME280;17871;31.584;74.450;2023-01-29T08:52:15;98600.22;;;20.19;67.98
31239;BME280;17871;31.584;74.450;2023-01-29T08:54:44;98608.84;;;20.21;67.65
31239;BME280;17871;31.584;74.450;2023-01-29T08:57:14;98600.03;;;20.28;67.24
31239;BME280;17871;31.584;74.450;2023-01-29T08:59:43;98591.56;;;20.20;68.08
31239;BME280;17871;31.584;74.450;2023-01-29T09:02:12;98592.34;;;20.22;68.74
31239;BME280;17871;31.584;74.450;2023-01-29T09:04:42;98592.25;;;20.27;67.72
31239;BME280;17871;31.584;74.450;2023-01-29T09:07:12;98582.22;;;20.13;68.68
31239;BME280;17871;31.584;74.450;2023-01-29T09:09:41;98585.47;;;20.21;68.15
31239;BME280;17871;31.584;74.450;2023-01-29T09:12:12;98584.91;;;20.10;68.33
31239;BME280;17871;31.584;74.450;2023-01-29T09:14:41;98591.00;;;20.09;68.63
31239;BME280;17871;31.584;74.450;2023-01-29T09:17:14;98587.84;;;20.30;68.75
31239;BME280;17871;31.584;74.450;2023-01-29T09:19:44;98586.34;;;20.22;68.78
31239;BME280;17871;31.584;74.450;2023-01-29T09:22:14;98582.28;;;20.11;68.88
31239;BME280;17871;31.584;74.450;2023-01-29T09:24:43;98572.44;;;20.23;67.84
31239;BME280;17871;31.584;74.450;2023-01-29T09:27:13;98578.63;;;20.18;68.79
31239;BME280;17871;31.584;74.450;2023-01-29T09:29:45;98577.34;;;20.35;68.39
31239;BME280;17871;31.584;74.450;2023-01-29T09:32:17;98575.66;;;20.32;68.78
31239;BME280;17871;31.584;74.450;2023-01-29T09:35:07;98565.59;;;20.20;68.85
31239;BME280;17871;31.584;74.450;2023-01-29T09:37:37;98566.91;;;20.05;69.46
31239;BME280;17871;31.584;74.450;2023-01-29T09:40:09;98579.03;;;20.05;69.02
31239;BME280;17871;31.584;74.450;2023-01-29T09:42:54;98583.69;;;20.23;69.34
31239;BME280;17871;31.584;74.450;2023-01-29T09:45:27;98586.81;;;20.05;69.97
31239;BME280;17871;31.584;74.450;2023-01-29T09:48:00;98590.38;;;20.01;70.86
31239;BME280;17871;31.584;74.450;2023-01-29T09:50:44;98595.56;;;20.01;69.68
31239;BME280;17871;31.584;74.450;2023-01-29T09:53:24;98586.25;;;19.92;70.01
31239;BME280;17871;31.584;74.450;2023-01-29T09:56:23;98590.03;;;20.13;68.90
31239;BME280;17871;31.584;74.450;2023-01-29T09:58:58;98598.50;;;19.89;70.23
31239;BME280;17871;31.584;74.450;2023-01-29T10:08:30;98604.59;;;19.86;70.18
31239;BME280;17871;31.584;74.450;2023-01-29T10:11:17;98601.03;;;19.58;70.72
31239;BME280;17871;31.584;74.450;2023-01-29T10:14:08;98598.38;;;19.59;71.30
31239;BME280;17871;31.584;74.450;2023-01-29T10:25:13;98587.09;;;19.62;71.55
31239;BME280;17871;31.584;74.450;2023-01-29T10:27:57;98588.50;;;19.40;71.53
31239;BME280;17871;31.584;74.450;2023-01-29T10:30:38;98599.34;;;19.20;70.80
31239;BME280;17871;31.584;74.450;2023-01-29T10:33:16;98606.09;;;19.27;71.41
31239;BME280;17871;31.584;74.450;2023-01-29T10:35:49;98607.72;;;19.31;72.31
31239;BME280;17871;31.584;74.450;2023-01-29T10:38:47;98598.06;;;19.38;72.13
31239;BME280;17871;31.584;74.450;2023-01-29T10:41:32;98597.81;;;19.13;73.63
31239;BME280;17871;31.584;74.450;2023-01-29T10:44:16;98599.56;;;19.11;74.49
31239;BME280;17871;31.584;74.450;2023-01-29T10:49:53;98590.31;;;19.01;75.58
31239;BME280;17871;31.584;74.450;2023-01-29T10:58:33;98575.78;;;18.94;75.82
31239;BME280;17871;31.584;74.450;2023-01-29T11:01:05;98554.25;;;18.55;77.13
31239;BME280;17871;31.584;74.450;2023-01-29T11:03:34;98547.47;;;18.49;78.29
31239;BME280;17871;31.584;74.450;2023-01-29T11:06:20;98581.09;;;18.49;80.38
31239;BME280;17871;31.584;74.450;2023-01-29T11:12:05;98609.78;;;18.39;84.07
31239;BME280;17871;31.584;74.450;2023-01-29T11:14:57;98598.38;;;18.49;84.87
31239;BME280;17871;31.584;74.450;2023-01-29T11:17:33;98595.78;;;18.07;87.00
31239;BME280;17871;31.584;74.450;2023-01-29T11:20:05;98602.69;;;18.05;89.17
31239;BME280;17871;31.584;74.450;2023-01-29T11:22:56;98598.69;;;17.91;91.02
31239;BME280;17871;31.584;74.450;2023-01-29T11:25:27;98605.97;;;17.71;92.75
31239;BME280;17871;31.584;74.450;2023-01-29T11:28:01;98586.97;;;17.72;94.60
31239;BME280;17871;31.584;74.450;2023-01-29T11:30:38;98600.00;;;17.66;95.36
31239;BME280;17871;31.584;74.450;2023-01-29T11:33:17;98597.59;;;17.56;97.48
31239;BME280;17871;31.584;74.450;2023-01-29T11:35:48;98586.00;;;17.28;98.33
31239;BME280;17871;31.584;74.450;2023-01-29T11:38:26;98590.09;;;17.40;99.15
31239;BME280;17871;31.584;74.450;2023-01-29T11:41:09;98595.41;;;17.31;100.00
31239;BME280;17871;31.584;74.450;2023-01-29T11:43:42;98600.81;;;17.17;100.00
31239;BME280;17871;31.584;74.450;2023-01-29T11:46:13;98588.75;;;17.16;100.00
31239;BME280;17871;31.584;74.450;2023-01-29T11:48:46;98599.16;;;17.13;100.00
31239;BME280;17871;31.584;74.450;2023-01-29T11:51:24;98594.78;;;17.18;100.00
31239;BME280;17871;31.584;74.450;2023-01-29T11:54:01;98604.34;;;17.11;100.00
31239;BME280;17871;31.584;74.450;2023-01-29T11:56:38;98599.25;;;17.08;100.00
31239;BME280;17871;31.584;74.450;2023-01-29T11:59:39;98601.63;;;17.21;100.00
31239;BME280;17871;31.584;74.450;2023-01-29T12:02:26;98609.34;;;17.21;100.00
31239;BME280;17871;31.584;74.450;2023-01-29T12:05:05;98609.41;;;17.16;100.00
31239;BME280;17871;31.584;74.450;2023-01-29T12:07:48;98611.13;;;17.19;100.00
31239;BME280;17871;31.584;74.450;2023-01-29T12:10:41;98607.59;;;17.24;100.00
31239;BME280;17871;31.584;74.450;2023-01-29T12:15:43;98617.66;;;16.84;100.00
31239;BME280;17871;31.584;74.450;2023-01-29T12:20:55;98618.94;;;17.16;100.00
31239;BME280;17871;31.584;74.450;2023-01-29T12:23:54;98622.63;;;16.98;99.21
31239;BME280;17871;31.584;74.450;2023-01-29T12:26:33;98632.81;;;17.07;97.63
31239;BME280;17871;31.584;74.450;2023-01-29T12:29:55;98638.81;;;17.09;97.13
31239;BME280;17871;31.584;74.450;2023-01-29T12:38:13;98628.75;;;16.89;94.69
31239;BME280;17871;31.584;74.450;2023-01-29T12:40:47;98618.56;;;16.80;93.28
31239;BME280;17871;31.584;74.450;2023-01-29T12:43:26;98619.28;;;16.90;92.37
31239;BME280;17871;31.584;74.450;2023-01-29T12:45:59;98622.78;;;16.89;92.79
31239;BME280;17871;31.584;74.450;2023-01-29T12:48:34;98616.81;;;16.84;92.38
31239;BME280;17871;31.584;74.450;2023-01-29T12:51:17;98609.75;;;16.95;92.35
31239;BME280;17871;31.584;74.450;2023-01-29T12:54:07;98611.53;;;16.91;92.74
31239;BME280;17871;31.584;74.450;2023-01-29T12:56:52;98614.72;;;17.07;93.47
31239;BME280;17871;31.584;74.450;2023-01-29T12:59:35;98614.03;;;16.96;94.21
31239;BME280;17871;31.584;74.450;2023-01-29T13:02:26;98604.81;;;16.81;95.84
31239;BME280;17871;31.584;74.450;2023-01-29T13:10:53;98612.44;;;16.89;96.84
31239;BME280;17871;31.584;74.450;2023-01-29T13:13:46;98621.09;;;16.85;98.66
31239;BME280;17871;31.584;74.450;2023-01-29T13:16:29;98609.00;;;16.87;99.12
31239;BME280;17871;31.584;74.450;2023-01-29T13:19:05;98614.16;;;16.87;98.86
31239;BME280;17871;31.584;74.450;2023-01-29T13:21:40;98624.50;;;16.87;99.92
31239;BME280;17871;31.584;74.450;2023-01-29T13:24:15;98624.53;;;16.84;100.00
31239;BME280;17871;31.584;74.450;2023-01-29T13:26:47;98622.81;;;16.86;99.99
31239;BME280;17871;31.584;74.450;2023-01-29T13:29:30;98618.38;;;16.94;99.98
31239;BME280;17871;31.584;74.450;2023-01-29T13:32:04;98615.16;;;16.78;100.00
31239;BME280;17871;31.584;74.450;2023-01-29T13:34:44;98617.56;;;16.92;100.00
31239;BME280;17871;31.584;74.450;2023-01-29T13:37:22;98620.91;;;16.98;100.00
31239;BME280;17871;31.584;74.450;2023-01-29T13:39:58;98615.06;;;16.86;99.97
31239;BME280;17871;31.584;74.450;2023-01-29T13:42:46;98630.31;;;17.02;99.86
31239;BME280;17871;31.584;74.450;2023-01-29T13:45:26;98629.53;;;16.96;100.00
31239;BME280;17871;31.584;74.450;2023-01-29T13:48:30;98627.66;;;17.07;99.64
31239;BME280;17871;31.584;74.450;2023-01-29T13:51:11;98621.66;;;17.03;99.55
31239;BME280;17871;31.584;74.450;2023-01-29T13:54:07;98622.44;;;17.10;99.13
31239;BME280;17871;31.584;74.450;2023-01-29T13:59:53;98612.25;;;17.01;99.55
31239;BME280;17871;31.584;74.450;2023-01-29T14:02:27;98612.41;;;16.92;99.63
31239;BME280;17871;31.584;74.450;2023-01-29T14:05:35;98606.88;;;17.13;99.32
31239;BME280;17871;31.584;74.450;2023-01-29T14:10:43;98595.25;;;16.86;99.67
31239;BME280;17871;31.584;74.450;2023-01-29T14:18:32;98606.38;;;16.91;99.31
31239;BME280;17871;31.584;74.450;2023-01-29T14:21:04;98608.19;;;16.85;99.96
31239;BME280;17871;31.584;74.450;2023-01-29T14:23:36;98606.56;;;16.76;99.51
31239;BME280;17871;31.584;74.450;2023-01-29T14:34:41;98627.69;;;17.04;98.55
31239;BME280;17871;31.584;74.450;2023-01-29T14:39:47;98622.56;;;17.01;98.70
31239;BME280;17871;31.584;74.450;2023-01-29T14:42:28;98634.69;;;16.96;99.00
31239;BME280;17871;31.584;74.450;2023-01-29T14:45:21;98631.03;;;17.12;98.80
31239;BME280;17871;31.584;74.450;2023-01-29T14:48:00;98631.13;;;17.04;98.34
31239;BME280;17871;31.584;74.450;2023-01-29T14:58:33;98637.94;;;17.10;98.26
31239;BME280;17871;31.584;74.450;2023-01-29T15:01:14;98645.72;;;17.07;97.87
31239;BME280;17871;31.584;74.450;2023-01-29T15:03:57;98642.31;;;17.03;99.10
31239;BME280;17871;31.584;74.450;2023-01-29T15:06:47;98644.00;;;17.07;99.23
31239;BME280;17871;31.584;74.450;2023-01-29T15:17:45;98652.69;;;17.00;98.62
31239;BME280;17871;31.584;74.450;2023-01-29T15:20:46;98641.34;;;17.12;98.58
31239;BME280;17871;31.584;74.450;2023-01-29T15:23:29;98658.69;;;17.04;97.98
31239;BME280;17871;31.584;74.450;2023-01-29T15:26:01;98669.13;;;16.95;99.13
31239;BME280;17871;31.584;74.450;2023-01-29T15:28:34;98671.69;;;16.96;98.74
31239;BME280;17871;31.584;74.450;2023-01-29T15:31:10;98683.72;;;16.99;98.49
31239;BME280;17871;31.584;74.450;2023-01-29T15:33:43;98688.06;;;16.94;99.10
31239;BME280;17871;31.584;74.450;2023-01-29T15:36:32;98686.97;;;17.11;98.37
31239;BME280;17871;31.584;74.450;2023-01-29T15:39:24;98693.09;;;17.03;98.59
31239;BME280;17871;31.584;74.450;2023-01-29T15:42:11;98685.31;;;17.06;99.13
31239;BME280;17871;31.584;74.450;2023-01-29T15:44:44;98687.16;;;16.98;99.10
31239;BME280;17871;31.584;74.450;2023-01-29T15:47:14;98685.50;;;16.94;98.52
31239;BME280;17871;31.584;74.450;2023-01-29T15:49:45;98694.88;;;16.99;98.97
31239;BME280;17871;31.584;74.450;2023-01-29T15:52:25;98704.50;;;16.88;99.58
31239;BME280;17871;31.584;74.450;2023-01-29T15:55:02;98707.91;;;16.92;100.00
31239;BME280;17871;31.584;74.450;2023-01-29T15:57:39;98708.56;;;17.06;98.54